Time;durP1;ratioP1;P1;durP2;ratioP2;P2;SDS_P1;SDS_P2;PMS_P1;PMS_P2;Temp;Humidity;BMP_temperature;BMP_pressure;BME280_temperature;BME280_humidity;BME280_pressure;Samples;Min_cycle;Max_cycle;Signal;HPM_P1;HPM_P2
2021/06/22 00:02:01;;;;;;;15.35;4.47;;;;;;;15.32;100.00;92892.73;1804524;79;21022;-78
2021/06/22 00:04:27;;;;;;;12.00;3.83;;;;;;;15.30;100.00;92896.50;1815813;78;21045;-78
2021/06/22 00:06:55;;;;;;;12.63;4.55;;;;;;;15.26;100.00;92895.23;1798699;78;21005;-80
2021/06/22 00:09:22;;;;;;;14.60;4.50;;;;;;;15.23;100.00;92896.70;1764335;80;21104;-80
2021/06/22 00:11:48;;;;;;;14.18;3.80;;;;;;;15.23;100.00;92897.50;1792871;78;21211;-79
2021/06/22 00:14:15;;;;;;;18.15;3.92;;;;;;;15.25;100.00;92890.97;1825496;78;21538;-77
2021/06/22 00:16:41;;;;;;;13.80;4.10;;;;;;;15.23;100.00;92897.50;1824258;78;21048;-78
2021/06/22 00:19:08;;;;;;;14.23;4.25;;;;;;;15.21;100.00;92893.05;1824874;78;21013;-80
2021/06/22 00:21:34;;;;;;;15.80;4.22;;;;;;;15.25;100.00;92888.83;1825033;78;20997;-79
2021/06/22 00:24:01;;;;;;;15.28;4.28;;;;;;;15.27;100.00;92888.57;1824607;78;21130;-78
2021/06/22 00:26:27;;;;;;;16.65;4.30;;;;;;;15.25;100.00;92887.47;1825382;78;22182;-81
2021/06/22 00:28:53;;;;;;;13.62;3.75;;;;;;;15.25;100.00;92877.88;1825990;78;21095;-80
2021/06/22 00:31:20;;;;;;;13.18;3.70;;;;;;;15.19;100.00;92876.27;1826018;78;21052;-78
2021/06/22 00:33:46;;;;;;;8.25;4.10;;;;;;;15.10;100.00;92877.53;1824787;78;21029;-79
2021/06/22 00:36:13;;;;;;;13.95;4.25;;;;;;;15.00;100.00;92871.77;1825672;78;21131;-79
2021/06/22 00:38:40;;;;;;;15.23;5.17;;;;;;;14.94;100.00;92872.16;1827144;78;21013;-81
2021/06/22 00:41:08;;;;;;;18.23;4.10;;;;;;;14.87;100.00;92869.63;1825529;78;21594;-81
2021/06/22 00:43:39;;;;;;;13.90;4.10;;;;;;;14.86;100.00;92862.02;1825994;78;21060;-77
2021/06/22 00:46:06;;;;;;;7.80;3.52;;;;;;;14.91;100.00;92853.26;1824603;78;21036;-80
2021/06/22 00:48:33;;;;;;;10.43;4.25;;;;;;;14.95;100.00;92854.52;1825139;78;21178;-80
2021/06/22 00:50:59;;;;;;;11.55;3.98;;;;;;;14.87;100.00;92849.09;1824966;78;21148;-80
2021/06/22 00:53:26;;;;;;;13.60;4.33;;;;;;;14.76;100.00;92852.91;1825699;78;21044;-80
2021/06/22 00:55:55;;;;;;;9.33;3.72;;;;;;;14.68;100.00;92852.19;1826426;78;21276;-80
2021/06/22 00:58:26;;;;;;;11.40;4.33;;;;;;;14.67;100.00;92853.36;1824031;78;21041;-80
2021/06/22 01:00:55;;;;;;;9.03;3.30;;;;;;;14.66;100.00;92850.47;1823344;78;21359;-79
2021/06/22 01:03:22;;;;;;;16.70;4.87;;;;;;;14.62;100.00;92849.20;1825546;78;21084;-78
2021/06/22 01:05:48;;;;;;;12.37;4.30;;;;;;;14.56;100.00;92855.06;1825652;78;21415;-78
2021/06/22 01:08:15;;;;;;;8.10;3.45;;;;;;;14.52;100.00;92859.86;1825629;78;21682;-80
2021/06/22 01:10:41;;;;;;;9.53;3.75;;;;;;;14.51;100.00;92860.44;1825905;78;21044;-80
2021/06/22 01:13:09;;;;;;;12.30;4.05;;;;;;;14.54;100.00;92863.69;1825382;78;21404;-79
2021/06/22 01:15:37;;;;;;;11.88;4.28;;;;;;;14.56;100.00;92862.66;1825997;78;21663;-79
2021/06/22 01:18:05;;;;;;;12.35;4.22;;;;;;;14.54;100.00;92868.39;1826052;78;21527;-77
2021/06/22 01:20:36;;;;;;;8.20;3.77;;;;;;;14.51;100.00;92867.88;1824502;78;21559;-80
2021/06/22 01:23:05;;;;;;;10.82;3.70;;;;;;;14.51;100.00;92865.14;1826499;78;21575;-81
2021/06/22 01:25:33;;;;;;;12.07;3.60;;;;;;;14.45;100.00;92878.57;1792188;78;21118;-79
2021/06/22 01:28:00;;;;;;;11.18;4.55;;;;;;;14.36;100.00;92878.41;1827187;78;21041;-79
2021/06/22 01:30:28;;;;;;;6.78;3.70;;;;;;;14.31;100.00;92874.25;1826572;78;21001;-79
2021/06/22 01:32:57;;;;;;;11.00;4.05;;;;;;;14.29;100.00;92867.66;1823287;78;21729;-80
2021/06/22 01:35:25;;;;;;;8.53;3.92;;;;;;;14.31;100.00;92861.17;1721142;82;21062;-79
2021/06/22 01:37:58;;;;;;;9.43;3.85;;;;;;;14.36;100.00;92859.27;1777598;78;21081;-80
2021/06/22 01:40:27;;;;;;;;;;;;;;;14.40;100.00;92867.37;1785426;79;21034;-78
2021/06/22 01:42:59;;;;;;;10.23;3.90;;;;;;;14.41;100.00;92864.83;1797693;78;20189;-80
2021/06/22 01:45:25;;;;;;;12.18;4.45;;;;;;;14.33;100.00;92870.49;1732076;79;21089;-80
2021/06/22 01:47:54;;;;;;;12.53;3.87;;;;;;;14.32;100.00;92870.91;1782598;79;21041;-81
2021/06/22 01:50:20;;;;;;;10.68;3.75;;;;;;;14.38;100.00;92871.16;1789415;78;21123;-80
2021/06/22 01:52:49;;;;;;;4.62;3.45;;;;;;;14.41;100.00;92871.67;1779121;79;21093;-78
2021/06/22 01:58:00;;;;;;;12.65;3.92;;;;;;;14.39;100.00;92877.55;1806147;78;21009;-80
2021/06/22 02:00:50;;;;;;;7.83;4.05;;;;;;;14.37;100.00;92865.50;1820838;77;21046;-81
2021/06/22 02:03:19;;;;;;;9.65;4.50;;;;;;;14.36;100.00;92869.45;1787412;78;21932;-79
2021/06/22 02:05:47;;;;;;;6.30;3.60;;;;;;;14.34;100.00;92873.39;1840227;77;21025;-79
2021/06/22 02:08:15;;;;;;;13.03;4.42;;;;;;;14.33;100.00;92870.49;1786963;77;21023;-79
2021/06/22 02:10:43;;;;;;;9.05;4.12;;;;;;;14.33;100.00;92873.83;1746502;82;21103;-78
2021/06/22 02:13:10;;;;;;;10.13;4.30;;;;;;;14.36;100.00;92876.28;1749117;80;21096;-81
2021/06/22 02:15:41;;;;;;;6.58;3.80;;;;;;;14.33;100.00;92882.80;1752704;80;21468;-79
2021/06/22 02:18:08;;;;;;;6.95;3.67;;;;;;;14.33;100.00;92880.06;1754007;80;21037;-79
2021/06/22 02:20:37;;;;;;;6.83;3.55;;;;;;;14.36;100.00;92885.25;1776560;79;21035;-78
2021/06/22 02:23:04;;;;;;;11.35;4.45;;;;;;;14.35;100.00;92896.03;1773040;79;21631;-81
2021/06/22 02:25:33;;;;;;;12.10;4.45;;;;;;;14.36;100.00;92898.16;1805534;78;21054;-78
2021/06/22 02:28:05;;;;;;;6.72;3.58;;;;;;;14.38;100.00;92893.05;1787967;79;21293;-81
2021/06/22 02:30:32;;;;;;;6.25;3.72;;;;;;;14.38;100.00;92895.17;1799804;77;21248;-81
2021/06/22 02:32:59;;;;;;;4.78;3.50;;;;;;;14.38;100.00;92899.27;1805369;79;22170;-79
2021/06/22 02:35:25;;;;;;;12.18;3.98;;;;;;;14.40;100.00;92912.51;1799726;79;21034;-80
2021/06/22 02:37:53;;;;;;;8.53;4.17;;;;;;;14.37;100.00;92906.53;1808177;79;21037;-81
2021/06/22 02:40:20;;;;;;;11.73;4.37;;;;;;;14.29;100.00;92899.91;1772954;80;21110;-77
2021/06/22 02:42:48;;;;;;;8.83;3.40;;;;;;;14.19;100.00;92900.94;1778511;80;21041;-79
2021/06/22 02:45:15;;;;;;;11.83;5.15;;;;;;;14.18;100.00;92898.63;1744100;82;21069;-79
2021/06/22 02:47:43;;;;;;;6.50;3.80;;;;;;;14.10;100.00;92891.20;1810656;79;21041;-81
2021/06/22 02:50:11;;;;;;;6.95;3.47;;;;;;;14.09;100.00;92896.51;1760816;79;21619;-78
2021/06/22 02:52:39;;;;;;;12.10;3.65;;;;;;;14.12;100.00;92892.16;1779292;79;21137;-78
2021/06/22 02:55:17;;;;;;;5.87;3.83;;;;;;;14.19;100.00;92894.71;1818917;78;21018;-80
2021/06/22 02:57:36;;;;;;;7.30;3.62;;;;;;;14.24;100.00;92894.17;1820111;77;21061;-80
2021/06/22 03:00:04;;;;;;;7.47;3.20;;;;;;;14.27;100.00;92900.92;1784887;80;21076;-80
2021/06/22 03:02:31;;;;;;;9.35;3.87;;;;;;;14.25;100.00;92908.01;1810843;78;21089;-77
2021/06/22 03:04:57;;;;;;;6.87;3.87;;;;;;;14.22;100.00;92906.92;1809133;77;21116;-77
2021/06/22 03:07:24;;;;;;;8.98;3.95;;;;;;;14.25;100.00;92904.67;1782818;80;21017;-78
2021/06/22 03:09:51;;;;;;;8.33;3.55;;;;;;;14.24;100.00;92904.51;1752054;80;21429;-80
2021/06/22 03:12:18;;;;;;;7.33;3.52;;;;;;;14.24;100.00;92905.11;1775216;80;21070;-79
2021/06/22 03:14:50;;;;;;;9.60;3.42;;;;;;;14.27;100.00;92912.46;1805188;79;21668;-78
2021/06/22 03:17:20;;;;;;;9.70;4.22;;;;;;;14.28;100.00;92914.75;1822668;78;21000;-77
2021/06/22 03:19:46;;;;;;;8.75;3.37;;;;;;;14.24;100.00;92908.61;1803721;78;21096;-78
2021/06/22 03:22:14;;;;;;;6.92;3.67;;;;;;;14.19;100.00;92911.11;1785145;79;21029;-77
2021/06/22 03:24:42;;;;;;;8.38;3.60;;;;;;;14.15;100.00;92903.00;1784727;80;21045;-79
2021/06/22 03:27:09;;;;;;;11.80;4.10;;;;;;;14.12;100.00;92904.46;1758540;80;21014;-80
2021/06/22 03:29:37;;;;;;;5.37;3.55;;;;;;;14.06;100.00;92908.30;1837858;77;21110;-79
2021/06/22 03:32:07;;;;;;;4.92;3.40;;;;;;;14.04;100.00;92910.70;1800229;77;21269;-80
2021/06/22 03:34:35;;;;;;;9.65;3.52;;;;;;;14.04;100.00;92912.07;1786910;80;21044;-78
2021/06/22 03:37:02;;;;;;;5.17;3.45;;;;;;;14.05;100.00;92914.97;1760487;80;21049;-80
2021/06/22 03:39:30;;;;;;;7.42;3.37;;;;;;;14.06;100.00;92909.66;1778496;80;21151;-81
2021/06/22 03:41:57;;;;;;;4.75;3.25;;;;;;;14.10;100.00;92914.44;1774300;80;21145;-81
2021/06/22 03:44:24;;;;;;;12.80;3.75;;;;;;;14.09;100.00;92911.55;1774404;79;21026;-81
2021/06/22 03:46:55;;;;;;;9.58;3.72;;;;;;;14.04;99.90;92913.44;1779296;79;21086;-81
2021/06/22 03:49:22;;;;;;;7.70;3.83;;;;;;;13.99;100.00;92916.67;1779083;79;21092;-79
2021/06/22 03:51:50;;;;;;;8.20;4.30;;;;;;;13.97;100.00;92919.08;1775962;80;21031;-78
2021/06/22 03:54:17;;;;;;;5.50;3.37;;;;;;;13.93;100.00;92921.91;1747766;81;22092;-78
2021/06/22 03:56:46;;;;;;;7.47;3.42;;;;;;;13.95;100.00;92920.09;1794964;79;21077;-80
2021/06/22 03:59:15;;;;;;;6.83;3.62;;;;;;;14.01;100.00;92920.52;1760768;79;21097;-81
2021/06/22 04:01:43;;;;;;;6.83;3.37;;;;;;;14.12;100.00;92917.53;1750313;81;21624;-80
2021/06/22 04:04:10;;;;;;;6.08;2.90;;;;;;;14.29;100.00;92927.25;1794402;78;21045;-80
2021/06/22 04:06:47;;;;;;;4.30;3.25;;;;;;;14.45;100.00;92934.64;1772852;79;21085;-80
2021/06/22 04:09:14;;;;;;;8.88;3.55;;;;;;;14.62;100.00;92934.02;1742594;82;21651;-80
2021/06/22 04:11:44;;;;;;;7.15;3.10;;;;;;;14.77;100.00;92940.64;1752229;79;21006;-80
2021/06/22 04:14:10;;;;;;;5.62;3.10;;;;;;;14.90;100.00;92932.48;1742602;80;21046;-79
2021/06/22 04:16:40;;;;;;;6.95;3.45;;;;;;;15.04;100.00;92944.41;1791463;78;21034;-82
2021/06/22 04:19:08;;;;;;;10.03;4.42;;;;;;;15.38;100.00;92938.14;1813593;78;21766;-82
2021/06/22 04:21:37;;;;;;;3.30;3.00;;;;;;;15.82;100.00;92935.05;1783081;80;21037;-81
2021/06/22 04:24:05;;;;;;;3.17;2.72;;;;;;;16.23;98.84;92934.11;1815028;78;21284;-80
2021/06/22 04:26:32;;;;;;;6.95;3.40;;;;;;;16.50;96.66;92934.96;1819990;78;21028;-84
2021/06/22 04:28:58;;;;;;;4.15;2.65;;;;;;;16.65;95.14;92938.59;1797658;78;21072;-81
2021/06/22 04:31:25;;;;;;;4.65;3.12;;;;;;;16.72;93.60;92932.86;1770335;80;21110;-82
2021/06/22 04:33:52;;;;;;;13.58;6.65;;;;;;;16.74;92.83;92934.59;1819843;78;21018;-80
2021/06/22 04:36:18;;;;;;;13.45;8.55;;;;;;;16.75;92.53;92940.23;1785760;80;21037;-80
2021/06/22 04:38:45;;;;;;;8.28;5.30;;;;;;;16.77;92.10;92937.03;1815901;78;21005;-82
2021/06/22 04:41:12;;;;;;;11.00;5.45;;;;;;;16.83;91.95;92942.89;1768653;79;21034;-82
2021/06/22 04:43:38;;;;;;;5.25;4.10;;;;;;;16.88;91.60;92940.17;1798620;78;21105;-81
2021/06/22 04:46:05;;;;;;;6.80;3.83;;;;;;;16.89;91.36;92925.25;1778519;79;21927;-82
2021/06/22 04:48:31;;;;;;;6.08;3.20;;;;;;;16.93;91.27;92930.00;1811797;79;21030;-82
2021/06/22 04:50:58;;;;;;;6.30;3.55;;;;;;;16.96;90.62;92934.58;1782163;79;21351;-82
2021/06/22 04:53:26;;;;;;;4.80;3.17;;;;;;;16.96;90.33;92947.73;1748600;81;21129;-83
2021/06/22 04:55:53;;;;;;;6.40;3.65;;;;;;;16.98;90.68;92952.16;1785279;78;21117;-80
2021/06/22 04:58:19;;;;;;;3.20;2.77;;;;;;;17.07;90.55;92945.95;1784208;80;21191;-83
2021/06/22 05:00:45;;;;;;;3.02;2.83;;;;;;;17.23;90.18;92944.39;1784316;80;21053;-84
2021/06/22 05:03:12;;;;;;;6.53;3.27;;;;;;;17.50;89.54;92945.76;1746436;80;21459;-81
2021/06/22 05:05:38;;;;;;;4.33;3.22;;;;;;;17.74;88.24;92944.64;1764470;80;20987;-85
2021/06/22 05:08:06;;;;;;;4.60;2.65;;;;;;;17.88;87.20;92941.98;1777278;80;21132;-83
2021/06/22 05:10:32;;;;;;;4.08;3.25;;;;;;;17.93;86.59;92944.13;1779803;80;21198;-81
2021/06/22 05:12:59;;;;;;;3.77;2.77;;;;;;;17.96;86.58;92937.72;1784463;80;21104;-80
2021/06/22 05:15:28;;;;;;;8.55;3.92;;;;;;;18.08;86.76;92940.20;1744822;80;21091;-81
2021/06/22 05:17:54;;;;;;;4.55;3.55;;;;;;;18.35;86.69;92942.24;1768883;80;21065;-82
2021/06/22 05:20:21;;;;;;;4.80;3.30;;;;;;;18.67;85.21;92932.66;1777124;80;21442;-82
2021/06/22 05:22:47;;;;;;;4.87;3.50;;;;;;;18.90;84.28;92926.56;1769257;79;21179;-81
2021/06/22 05:25:14;;;;;;;7.47;3.10;;;;;;;19.08;83.57;92930.53;1757703;79;21117;-83
2021/06/22 05:27:41;;;;;;;5.47;3.33;;;;;;;19.20;82.61;92934.34;1787948;78;21064;-82
2021/06/22 05:30:09;;;;;;;4.10;3.30;;;;;;;19.24;82.59;92940.45;1766937;79;21133;-83
2021/06/22 05:32:35;;;;;;;5.30;2.90;;;;;;;19.27;82.05;92951.33;1730984;81;21123;-85
2021/06/22 05:35:02;;;;;;;11.78;3.60;;;;;;;19.37;82.28;92939.06;1736984;81;21143;-82
2021/06/22 05:37:29;;;;;;;8.65;3.25;;;;;;;19.59;82.25;92942.20;1749808;79;21018;-84
2021/06/22 05:39:56;;;;;;;7.30;3.87;;;;;;;19.90;80.06;92940.61;1755880;80;21444;-87
2021/06/22 05:42:23;;;;;;;5.12;3.80;;;;;;;20.19;78.59;92943.37;1744289;78;21133;-84
2021/06/22 05:44:49;;;;;;;5.12;3.35;;;;;;;20.42;77.77;92944.01;1790707;79;21095;-86
2021/06/22 05:47:15;;;;;;;8.43;4.00;;;;;;;20.53;77.47;92945.66;1793411;79;21559;-85
2021/06/22 05:49:42;;;;;;;4.37;2.90;;;;;;;20.61;78.02;92942.71;1797980;79;21010;-84
2021/06/22 05:52:11;;;;;;;6.15;3.00;;;;;;;20.64;76.57;92942.37;1731140;81;21078;-84
2021/06/22 05:54:39;;;;;;;3.95;3.15;;;;;;;20.67;75.85;92940.05;1804701;77;21053;-84
2021/06/22 05:57:08;;;;;;;4.33;2.62;;;;;;;20.69;75.58;92937.59;1788487;78;21115;-87
2021/06/22 05:59:35;;;;;;;4.85;3.00;;;;;;;20.79;74.50;92933.50;1783388;77;21101;-89
2021/06/22 06:02:38;;;;;;;4.00;3.15;;;;;;;20.95;71.17;92938.45;1856589;76;22078;-78
2021/06/22 06:05:09;;;;;;;4.97;2.90;;;;;;;20.96;71.95;92935.85;1784032;79;21065;-79
2021/06/22 06:07:36;;;;;;;3.55;2.70;;;;;;;20.99;71.25;92930.14;1750142;79;21501;-79
2021/06/22 06:10:04;;;;;;;4.30;3.00;;;;;;;21.22;71.76;92927.80;1724665;81;21137;-79
2021/06/22 06:12:36;;;;;;;3.15;2.85;;;;;;;21.64;70.71;92924.78;1719616;82;21176;-78
2021/06/22 06:28:04;;;;;;;5.42;2.90;;;;;;;23.87;63.54;92921.15;1813351;78;23443;-78
2021/06/22 06:30:35;;;;;;;;;;;;;;;23.83;63.95;92920.61;1748889;80;21101;-76
2021/06/22 06:33:07;;;;;;;7.85;3.40;;;;;;;23.79;63.47;92922.09;1729182;81;21170;-77
2021/06/22 06:35:41;;;;;;;5.90;3.30;;;;;;;23.67;63.46;92919.22;1743582;80;21060;-78
2021/06/22 06:38:10;;;;;;;5.35;3.22;;;;;;;23.55;63.42;92923.77;1779648;79;21021;-77
2021/06/22 06:40:37;;;;;;;7.25;3.47;;;;;;;23.44;64.00;92918.86;1775640;78;21085;-77
2021/06/22 06:43:04;;;;;;;5.67;2.75;;;;;;;23.37;64.66;92918.66;1793148;79;21008;-76
2021/06/22 06:45:31;;;;;;;4.80;2.83;;;;;;;23.39;63.29;92921.70;1774545;77;21487;-77
2021/06/22 06:47:59;;;;;;;2.85;2.58;;;;;;;23.37;63.36;92923.45;1774147;79;21113;-77
2021/06/22 06:50:25;;;;;;;3.33;2.70;;;;;;;23.30;62.19;92918.34;1751573;79;21373;-78
2021/06/22 06:52:52;;;;;;;6.37;3.00;;;;;;;23.25;62.00;92912.25;1743261;80;21123;-79
2021/06/22 06:55:27;;;;;;;2.62;2.42;;;;;;;23.24;62.11;92912.12;1747039;81;21105;-78
2021/06/22 06:58:03;;;;;;;4.12;2.37;;;;;;;23.26;62.70;92917.16;1708892;81;22355;-78
2021/06/22 07:00:33;;;;;;;5.72;2.60;;;;;;;23.32;61.04;92913.83;1786482;78;22026;-76
2021/06/22 07:02:59;;;;;;;5.58;2.72;;;;;;;23.34;59.80;92911.31;1772427;80;21072;-77
2021/06/22 07:05:27;;;;;;;4.00;2.40;;;;;;;23.35;60.68;92908.67;1790859;77;21033;-77
2021/06/22 07:07:54;;;;;;;4.10;2.25;;;;;;;23.32;59.37;92913.83;1752824;79;21047;-78
2021/06/22 07:10:22;;;;;;;3.45;2.35;;;;;;;23.34;59.40;92913.33;1783566;80;21187;-77
2021/06/22 07:12:52;;;;;;;3.00;2.12;;;;;;;23.33;58.71;92920.14;1793662;78;21079;-78
2021/06/22 07:15:21;;;;;;;2.05;1.90;;;;;;;23.34;60.45;92921.66;1811957;78;21141;-78
2021/06/22 07:17:48;;;;;;;3.00;2.00;;;;;;;23.37;56.89;92924.84;1831439;75;21660;-78
2021/06/22 07:20:15;;;;;;;2.37;1.98;;;;;;;23.37;56.80;92929.76;1846664;76;21111;-79
2021/06/22 07:22:43;;;;;;;5.75;2.30;;;;;;;23.40;57.54;92918.32;1788009;77;21351;-79
2021/06/22 07:25:12;;;;;;;103.60;5.85;;;;;;;23.44;57.48;92923.78;1781529;80;21108;-78
2021/06/22 07:27:38;;;;;;;6.17;2.92;;;;;;;23.50;58.48;92920.41;1816854;78;21898;-80
2021/06/22 07:30:07;;;;;;;2.95;2.00;;;;;;;23.57;58.42;92921.23;1831126;78;21028;-79
2021/06/22 07:32:34;;;;;;;3.12;2.30;;;;;;;23.63;56.36;92919.28;1790474;79;21079;-79
2021/06/22 07:36:22;;;;;;;2.50;2.27;;;;;;;23.80;56.63;92918.81;1875752;76;22706;-79
2021/06/22 07:38:49;;;;;;;2.58;2.12;;;;;;;23.94;56.98;92922.09;1802812;78;21428;-79
2021/06/22 07:41:17;;;;;;;3.12;2.40;;;;;;;24.15;55.78;92924.78;1792177;78;22445;-79
2021/06/22 07:43:45;;;;;;;3.25;2.00;;;;;;;24.43;57.07;92923.58;1769843;79;21683;-79
2021/06/22 07:46:12;;;;;;;2.95;2.40;;;;;;;24.67;56.56;92921.20;1769351;77;22073;-79
2021/06/22 07:48:39;;;;;;;4.60;1.90;;;;;;;24.79;56.05;92914.30;1849258;76;21062;-78
2021/06/22 07:51:06;;;;;;;3.27;2.10;;;;;;;24.82;54.78;92909.88;1784358;77;21302;-77
2021/06/22 07:53:35;;;;;;;3.02;2.37;;;;;;;24.82;53.84;92913.28;1773530;78;21128;-79
2021/06/22 07:56:02;;;;;;;3.27;2.22;;;;;;;24.80;53.83;92906.84;1778816;77;21380;-77
2021/06/22 07:58:28;;;;;;;4.05;1.95;;;;;;;24.76;52.44;92906.96;1815682;77;21068;-78
2021/06/22 08:00:55;;;;;;;3.08;1.70;;;;;;;24.75;52.71;92914.55;1794155;78;21065;-78
2021/06/22 08:03:23;;;;;;;6.30;2.37;;;;;;;24.76;52.79;92911.13;1782937;78;21100;-78
2021/06/22 08:05:53;;;;;;;3.62;1.80;;;;;;;24.71;52.52;92900.88;1740360;79;21518;-79
2021/06/22 08:08:22;;;;;;;3.33;1.72;;;;;;;24.69;51.62;92906.80;1769587;79;20956;-77
2021/06/22 08:10:58;;;;;;;4.30;1.67;;;;;;;24.67;49.83;92903.73;1778241;78;20990;-78
2021/06/22 08:13:28;;;;;;;;;;;;;;;24.65;50.08;92904.25;1778912;79;21102;-80
2021/06/22 08:15:59;;;;;;;3.95;1.57;;;;;;;24.64;50.24;92905.52;1742851;80;20185;-79
2021/06/22 08:18:28;;;;;;;2.72;1.70;;;;;;;24.62;50.45;92903.85;1801834;78;21740;-78
2021/06/22 08:20:58;;;;;;;2.95;1.87;;;;;;;24.60;51.04;92898.05;1801957;78;21226;-80
2021/06/22 08:23:41;;;;;;;1.77;1.65;;;;;;;24.57;51.78;92899.03;1796160;78;21033;-79
2021/06/22 08:26:10;;;;;;;3.12;1.75;;;;;;;24.56;51.47;92903.69;1812823;76;20923;-79
2021/06/22 08:28:37;;;;;;;2.65;1.60;;;;;;;24.59;50.89;92897.14;1805932;76;21121;-79
2021/06/22 08:32:55;;;;;;;1.72;1.62;;;;;;;24.69;51.02;92889.48;1808953;77;22857;-78
2021/06/22 08:35:25;;;;;;;5.10;1.62;;;;;;;24.69;50.21;92892.27;1795624;78;21126;-78
2021/06/22 08:37:53;;;;;;;4.50;1.90;;;;;;;24.73;49.17;92894.05;1757397;77;22185;-78
2021/06/22 08:40:28;;;;;;;4.92;1.80;;;;;;;24.74;48.55;92893.54;1794555;78;21034;-79
2021/06/22 08:42:56;;;;;;;1.62;1.52;;;;;;;24.75;49.49;92893.69;1805670;77;21662;-78
2021/06/22 08:45:38;;;;;;;1.67;1.50;;;;;;;24.75;49.36;92893.69;1813741;77;21048;-78
2021/06/22 08:48:20;;;;;;;4.45;1.62;;;;;;;24.73;46.83;92896.20;1793802;79;21504;-78
2021/06/22 08:50:48;;;;;;;7.55;1.67;;;;;;;24.72;46.06;92897.47;1827133;77;22163;-80
2021/06/22 08:53:16;;;;;;;3.58;1.35;;;;;;;24.71;46.83;92899.48;1825111;76;21057;-80
2021/06/22 08:55:43;;;;;;;4.85;1.37;;;;;;;24.72;44.77;92904.41;1841266;76;21037;-79
2021/06/22 08:58:16;;;;;;;2.27;1.45;;;;;;;24.72;44.82;92904.41;1828733;76;21557;-79
2021/06/22 09:01:36;;;;;;;3.05;1.52;;;;;;;24.84;44.68;92899.66;1877902;76;22803;-79
2021/06/22 09:04:19;;;;;;;4.58;1.60;;;;;;;24.87;46.05;92902.84;1830082;76;21065;-79
2021/06/22 09:06:52;;;;;;;3.05;1.70;;;;;;;24.85;45.97;92906.09;1800569;77;21120;-79
2021/06/22 09:09:20;;;;;;;9.05;1.75;;;;;;;24.80;46.84;92908.87;1793726;76;21096;-80
2021/06/22 09:12:07;;;;;;;4.47;1.77;;;;;;;24.73;46.62;92912.87;1713627;82;21088;-79
2021/06/22 09:14:41;;;;;;;3.58;1.80;;;;;;;24.65;47.00;92913.98;1737868;79;22011;-78
2021/06/22 09:17:08;;;;;;;2.75;2.50;;;;;;;24.56;48.39;92912.02;1786738;79;20883;-79
2021/06/22 09:19:37;;;;;;;3.08;2.30;;;;;;;24.49;49.58;92919.46;1726819;82;21083;-79
2021/06/22 09:22:17;;;;;;;3.62;2.62;;;;;;;24.45;50.57;92916.28;1772044;79;20887;-78
2021/06/22 09:25:36;;;;;;;3.72;2.17;;;;;;;24.46;51.49;92917.80;1765965;80;20963;-79
2021/06/22 09:28:05;;;;;;;4.58;3.50;;;;;;;24.49;52.95;92920.85;1733543;81;21058;-78
2021/06/22 09:30:43;;;;;;;7.80;2.95;;;;;;;24.44;53.25;92920.30;1712679;81;21110;-79
2021/06/22 09:33:34;;;;;;;5.08;2.67;;;;;;;24.40;53.81;92923.94;1783678;78;21151;-78
2021/06/22 09:36:21;;;;;;;12.10;5.50;;;;;;;24.35;54.60;92922.50;1803033;76;21125;-83
2021/06/22 09:38:53;;;;;;;6.28;3.67;;;;;;;24.26;55.33;92910.18;1795267;77;21373;-80
2021/06/22 09:41:26;;;;;;;5.45;2.55;;;;;;;24.19;56.35;92907.25;1845791;76;21110;-79
2021/06/22 09:44:11;;;;;;;7.35;4.08;;;;;;;24.18;56.83;92909.88;1724689;82;20911;-79
2021/06/22 09:46:54;;;;;;;5.67;2.90;;;;;;;24.15;57.54;92913.03;1763977;79;23489;-80
2021/06/22 09:49:32;;;;;;;7.80;3.05;;;;;;;24.12;57.43;92913.27;1743616;80;20872;-78
2021/06/22 09:52:04;;;;;;;5.00;3.37;;;;;;;24.08;57.65;92916.27;1765507;78;20899;-79
2021/06/22 09:54:42;;;;;;;3.83;2.62;;;;;;;24.07;58.38;92918.92;1804507;77;21002;-80
2021/06/22 09:57:18;;;;;;;5.55;2.90;;;;;;;24.10;58.37;92922.70;1799546;77;20903;-79
2021/06/22 09:59:56;;;;;;;7.05;3.33;;;;;;;24.13;58.98;92915.53;1802837;77;21086;-79
2021/06/22 10:02:24;;;;;;;5.78;2.47;;;;;;;24.21;59.39;92911.04;1807164;77;21057;-80
2021/06/22 10:04:54;;;;;;;4.92;2.52;;;;;;;24.30;59.83;92910.11;1841884;77;21659;-80
2021/06/22 10:07:23;;;;;;;4.15;3.00;;;;;;;24.36;59.78;92915.05;1843130;77;20956;-81
2021/06/22 10:09:53;;;;;;;9.03;3.70;;;;;;;24.38;59.84;92909.77;1780881;77;20950;-80
2021/06/22 10:12:21;;;;;;;7.35;3.47;;;;;;;24.36;59.88;92909.49;1764801;78;21162;-79
2021/06/22 10:14:51;;;;;;;4.33;3.00;;;;;;;24.36;59.51;92910.13;1768768;78;21085;-77
2021/06/22 10:17:25;;;;;;;6.65;3.33;;;;;;;24.41;60.19;92912.98;1795733;78;20927;-78
2021/06/22 10:19:54;;;;;;;5.45;3.20;;;;;;;24.51;60.99;92903.03;1796501;78;20962;-79
2021/06/22 10:22:23;;;;;;;8.48;3.55;;;;;;;24.58;61.11;92904.72;1764190;78;20943;-80
2021/06/22 10:24:50;;;;;;;14.63;4.62;;;;;;;24.62;60.89;92902.46;1744572;80;21202;-80
2021/06/22 10:27:21;;;;;;;8.63;3.35;;;;;;;24.62;60.51;92906.63;1745614;80;21034;-81
2021/06/22 10:29:53;;;;;;;10.28;3.85;;;;;;;24.61;60.54;92910.67;1687774;79;21276;-81
2021/06/22 10:32:23;;;;;;;6.78;4.75;;;;;;;24.58;60.23;92910.91;1776777;77;21068;-80
2021/06/22 10:34:56;;;;;;;8.20;5.33;;;;;;;24.54;60.79;92911.77;1819460;77;21102;-81
2021/06/22 10:37:51;;;;;;;12.78;6.70;;;;;;;24.52;60.87;92915.03;1736100;80;21260;-78
2021/06/22 10:41:13;;;;;;;5.95;3.75;;;;;;;24.49;61.03;92913.27;1766918;79;21512;-80
2021/06/22 10:43:53;;;;;;;11.08;4.62;;;;;;;24.49;61.17;92913.91;1729361;80;21291;-81
2021/06/22 10:46:24;;;;;;;8.70;4.08;;;;;;;24.47;61.49;92903.27;1767074;78;21078;-81
2021/06/22 10:48:55;;;;;;;7.47;3.47;;;;;;;24.46;61.68;92900.37;1791797;78;21638;-80
2021/06/22 10:51:31;;;;;;;5.58;3.20;;;;;;;24.50;61.80;92891.17;1796227;78;21061;-81
2021/06/22 10:53:59;;;;;;;12.13;3.30;;;;;;;24.57;62.51;92892.72;1798067;78;20965;-81
2021/06/22 10:56:28;;;;;;;8.10;3.35;;;;;;;24.66;61.89;92886.30;1822475;77;21041;-79
2021/06/22 10:59:20;;;;;;;5.20;2.90;;;;;;;24.77;61.43;92885.59;1780818;78;21571;-83
2021/06/22 11:02:00;;;;;;;7.62;3.40;;;;;;;24.89;61.98;92891.95;1796267;78;21122;-83
2021/06/22 11:04:26;;;;;;;11.68;4.08;;;;;;;25.01;62.09;92880.23;1726820;79;21133;-82
2021/06/22 11:07:09;;;;;;;6.50;3.92;;;;;;;25.14;62.75;92890.30;1853141;75;21559;-82
2021/06/22 11:09:41;;;;;;;7.22;3.85;;;;;;;25.28;61.23;92885.16;1805013;76;21064;-82
2021/06/22 11:12:23;;;;;;;4.62;3.17;;;;;;;25.41;59.78;92882.64;1820803;76;21023;-81
2021/06/22 11:15:16;;;;;;;5.62;3.75;;;;;;;25.51;60.43;92878.99;1827954;75;20968;-83
2021/06/22 11:18:07;;;;;;;10.00;3.98;;;;;;;25.53;59.30;92877.08;1773576;79;21033;-79
2021/06/22 11:20:34;;;;;;;6.85;3.25;;;;;;;25.47;57.84;92878.48;1774083;79;21042;-80
2021/06/22 11:23:11;;;;;;;11.05;4.30;;;;;;;25.49;57.58;92886.31;1784338;78;21112;-83
2021/06/22 11:28:16;;;;;;;7.53;4.28;;;;;;;25.51;57.37;92884.56;1783083;79;22050;-84
2021/06/22 11:30:51;;;;;;;5.40;3.75;;;;;;;25.46;56.34;92882.52;1785995;79;21654;-80
2021/06/22 11:33:41;;;;;;;8.70;3.95;;;;;;;25.40;56.62;92883.16;1786812;79;22123;-80
2021/06/22 11:36:22;;;;;;;10.82;3.47;;;;;;;25.33;57.43;92883.01;1789086;79;21051;-82
2021/06/22 11:39:21;;;;;;;4.53;3.25;;;;;;;25.26;57.48;92870.98;1795677;78;21059;-79
2021/06/22 11:44:59;;;;;;;8.70;4.53;;;;;;;25.32;56.24;92867.59;1788826;79;21050;-81
2021/06/22 11:47:34;;;;;;;21.87;8.83;;;;;;;25.42;57.47;92864.67;1806956;76;21357;-81
2021/06/22 11:50:25;;;;;;;11.75;5.20;;;;;;;25.52;57.38;92870.01;1812689;78;21048;-77
2021/06/22 11:53:06;;;;;;;8.85;2.95;;;;;;;25.60;56.64;92863.42;1798423;78;21059;-80
2021/06/22 11:55:40;;;;;;;7.95;3.80;;;;;;;25.68;55.19;92865.83;1779194;79;21013;-81
2021/06/22 11:58:07;;;;;;;;;;;;;;;25.77;57.45;92862.05;1742433;78;22748;-81
2021/06/22 12:00:38;;;;;;;8.65;5.45;;;;;;;25.86;57.82;92862.45;1802789;77;20150;-82
2021/06/22 12:03:07;;;;;;;7.37;4.50;;;;;;;25.87;56.84;92862.56;1741900;76;21435;-81
2021/06/22 12:06:04;;;;;;;9.60;4.25;;;;;;;25.85;57.49;92859.55;1823844;76;21086;-79
2021/06/22 12:08:34;;;;;;;11.38;3.72;;;;;;;25.77;56.77;92858.51;1688336;79;21064;-80
2021/06/22 12:11:03;;;;;;;6.12;3.45;;;;;;;25.67;56.25;92858.75;1781034;79;21070;-79